sensor_id;sensor_type;location;lat;lon;timestamp;temperature;humidity
56542;DHT22;42438;53.174;6.730;2023-05-20T00:00:37;10.50;99.90
56542;DHT22;42438;53.174;6.730;2023-05-20T00:03:08;10.00;1.00
56542;DHT22;42438;53.174;6.730;2023-05-20T00:05:38;9.90;1.00
56542;DHT22;42438;53.174;6.730;2023-05-20T00:08:09;9.90;1.00
56542;DHT22;42438;53.174;6.730;2023-05-20T00:10:40;9.80;29.00
56542;DHT22;42438;53.174;6.730;2023-05-20T00:13:11;9.80;99.90
56542;DHT22;42438;53.174;6.730;2023-05-20T00:15:41;9.70;99.90
56542;DHT22;42438;53.174;6.730;2023-05-20T00:18:12;9.60;1.00
56542;DHT22;42438;53.174;6.730;2023-05-20T00:20:43;9.50;1.00
56542;DHT22;42438;53.174;6.730;2023-05-20T00:23:13;9.50;35.80
56542;DHT22;42438;53.174;6.730;2023-05-20T00:25:44;9.40;99.90
56542;DHT22;42438;53.174;6.730;2023-05-20T00:28:15;9.40;1.00
56542;DHT22;42438;53.174;6.730;2023-05-20T00:30:45;9.40;1.00
56542;DHT22;42438;53.174;6.730;2023-05-20T00:33:16;9.40;99.90
56542;DHT22;42438;53.174;6.730;2023-05-20T00:35:47;9.40;99.90
56542;DHT22;42438;53.174;6.730;2023-05-20T00:38:17;9.40;99.90
56542;DHT22;42438;53.174;6.730;2023-05-20T00:40:48;9.30;99.90
56542;DHT22;42438;53.174;6.730;2023-05-20T00:43:18;9.30;1.00
56542;DHT22;42438;53.174;6.730;2023-05-20T00:45:54;9.30;1.00
56542;DHT22;42438;53.174;6.730;2023-05-20T00:48:25;9.30;99.90
56542;DHT22;42438;53.174;6.730;2023-05-20T00:50:57;9.30;99.90
56542;DHT22;42438;53.174;6.730;2023-05-20T00:53:28;9.30;99.90
56542;DHT22;42438;53.174;6.730;2023-05-20T00:55:59;9.30;1.00
56542;DHT22;42438;53.174;6.730;2023-05-20T00:58:30;9.40;44.60
56542;DHT22;42438;53.174;6.730;2023-05-20T01:01:01;9.40;91.10
56542;DHT22;42438;53.174;6.730;2023-05-20T01:03:32;9.30;99.90
56542;DHT22;42438;53.174;6.730;2023-05-20T01:06:03;9.40;99.90
56542;DHT22;42438;53.174;6.730;2023-05-20T01:08:34;9.30;99.90
56542;DHT22;42438;53.174;6.730;2023-05-20T01:11:25;9.30;99.90
56542;DHT22;42438;53.174;6.730;2023-05-20T01:14:00;9.70;1.00
56542;DHT22;42438;53.174;6.730;2023-05-20T01:16:34;9.20;5.10
56542;DHT22;42438;53.174;6.730;2023-05-20T01:19:16;9.20;80.60
56542;DHT22;42438;53.174;6.730;2023-05-20T01:21:52;9.20;99.90
56542;DHT22;42438;53.174;6.730;2023-05-20T01:24:23;9.20;99.90
56542;DHT22;42438;53.174;6.730;2023-05-20T01:26:54;9.20;99.90
56542;DHT22;42438;53.174;6.730;2023-05-20T01:29:27;9.10;99.90
56542;DHT22;42438;53.174;6.730;2023-05-20T01:31:58;9.10;99.90
56542;DHT22;42438;53.174;6.730;2023-05-20T01:34:31;9.20;99.90
56542;DHT22;42438;53.174;6.730;2023-05-20T01:37:03;9.10;1.00
56542;DHT22;42438;53.174;6.730;2023-05-20T01:39:36;9.10;1.00
56542;DHT22;42438;53.174;6.730;2023-05-20T01:42:12;9.10;1.00
56542;DHT22;42438;53.174;6.730;2023-05-20T01:44:44;9.10;1.00
56542;DHT22;42438;53.174;6.730;2023-05-20T01:47:14;9.10;99.90
56542;DHT22;42438;53.174;6.730;2023-05-20T01:49:45;9.10;1.00
56542;DHT22;42438;53.174;6.730;2023-05-20T01:52:17;9.10;1.00
56542;DHT22;42438;53.174;6.730;2023-05-20T01:54:47;9.10;1.00
56542;DHT22;42438;53.174;6.730;2023-05-20T01:57:21;9.20;1.00
56542;DHT22;42438;53.174;6.730;2023-05-20T01:59:52;9.20;1.00
56542;DHT22;42438;53.174;6.730;2023-05-20T02:02:23;9.20;1.00
56542;DHT22;42438;53.174;6.730;2023-05-20T02:04:53;9.20;1.00
56542;DHT22;42438;53.174;6.730;2023-05-20T02:07:24;9.20;99.90
56542;DHT22;42438;53.174;6.730;2023-05-20T02:09:55;9.70;90.80
56542;DHT22;42438;53.174;6.730;2023-05-20T02:12:25;9.20;99.90
56542;DHT22;42438;53.174;6.730;2023-05-20T02:14:56;9.40;99.90
56542;DHT22;42438;53.174;6.730;2023-05-20T02:17:26;9.30;99.90
56542;DHT22;42438;53.174;6.730;2023-05-20T02:19:57;9.30;99.90
56542;DHT22;42438;53.174;6.730;2023-05-20T02:22:28;9.30;99.90
56542;DHT22;42438;53.174;6.730;2023-05-20T02:24:58;9.40;99.90
56542;DHT22;42438;53.174;6.730;2023-05-20T02:27:29;9.40;99.90
56542;DHT22;42438;53.174;6.730;2023-05-20T02:30:00;9.40;99.90
56542;DHT22;42438;53.174;6.730;2023-05-20T02:32:30;9.40;99.90
56542;DHT22;42438;53.174;6.730;2023-05-20T02:35:02;9.50;99.90
56542;DHT22;42438;53.174;6.730;2023-05-20T02:37:33;9.50;99.90
56542;DHT22;42438;53.174;6.730;2023-05-20T02:40:05;9.50;99.90
56542;DHT22;42438;53.174;6.730;2023-05-20T02:42:36;9.60;96.50
56542;DHT22;42438;53.174;6.730;2023-05-20T02:45:07;9.60;99.90
56542;DHT22;42438;53.174;6.730;2023-05-20T02:47:37;9.60;90.20
56542;DHT22;42438;53.174;6.730;2023-05-20T02:50:08;9.60;59.80
56542;DHT22;42438;53.174;6.730;2023-05-20T02:52:39;9.60;4.30
56542;DHT22;42438;53.174;6.730;2023-05-20T02:55:11;9.60;1.00
56542;DHT22;42438;53.174;6.730;2023-05-20T02:57:42;9.60;45.20
56542;DHT22;42438;53.174;6.730;2023-05-20T03:00:13;9.60;33.80
56542;DHT22;42438;53.174;6.730;2023-05-20T03:02:43;9.60;21.20
56542;DHT22;42438;53.174;6.730;2023-05-20T03:05:14;9.60;89.30
56542;DHT22;42438;53.174;6.730;2023-05-20T03:07:45;9.60;20.80
56542;DHT22;42438;53.174;6.730;2023-05-20T03:10:18;9.60;1.00
56542;DHT22;42438;53.174;6.730;2023-05-20T03:12:48;9.60;1.00
56542;DHT22;42438;53.174;6.730;2023-05-20T03:15:19;9.70;1.00
56542;DHT22;42438;53.174;6.730;2023-05-20T03:17:49;9.70;1.00
56542;DHT22;42438;53.174;6.730;2023-05-20T03:20:20;9.70;1.00
56542;DHT22;42438;53.174;6.730;2023-05-20T03:22:51;9.70;1.00
56542;DHT22;42438;53.174;6.730;2023-05-20T03:25:22;9.70;1.00
56542;DHT22;42438;53.174;6.730;2023-05-20T03:27:53;9.80;1.00
56542;DHT22;42438;53.174;6.730;2023-05-20T03:30:24;10.30;1.00
56542;DHT22;42438;53.174;6.730;2023-05-20T03:32:55;9.80;99.90
56542;DHT22;42438;53.174;6.730;2023-05-20T03:35:29;9.90;99.90
56542;DHT22;42438;53.174;6.730;2023-05-20T03:37:59;9.90;99.90
56542;DHT22;42438;53.174;6.730;2023-05-20T03:40:31;10.00;99.90
56542;DHT22;42438;53.174;6.730;2023-05-20T03:43:01;10.10;99.90
56542;DHT22;42438;53.174;6.730;2023-05-20T03:45:32;10.10;49.50
56542;DHT22;42438;53.174;6.730;2023-05-20T03:48:03;10.10;25.70
56542;DHT22;42438;53.174;6.730;2023-05-20T03:50:34;10.20;1.00
56542;DHT22;42438;53.174;6.730;2023-05-20T03:53:05;10.30;99.90
56542;DHT22;42438;53.174;6.730;2023-05-20T03:55:35;10.60;99.90
56542;DHT22;42438;53.174;6.730;2023-05-20T03:58:06;10.40;97.00
56542;DHT22;42438;53.174;6.730;2023-05-20T04:00:38;10.40;1.00
56542;DHT22;42438;53.174;6.730;2023-05-20T04:03:09;10.50;1.00
56542;DHT22;42438;53.174;6.730;2023-05-20T04:05:39;10.50;99.90
56542;DHT22;42438;53.174;6.730;2023-05-20T04:08:10;10.60;9.30
56542;DHT22;42438;53.174;6.730;2023-05-20T04:10:43;10.60;1.00
56542;DHT22;42438;53.174;6.730;2023-05-20T04:13:13;10.70;99.90
56542;DHT22;42438;53.174;6.730;2023-05-20T04:15:44;10.70;1.00
56542;DHT22;42438;53.174;6.730;2023-05-20T04:18:14;10.80;99.90
56542;DHT22;42438;53.174;6.730;2023-05-20T04:20:45;10.90;11.30
56542;DHT22;42438;53.174;6.730;2023-05-20T04:23:16;10.90;1.00
56542;DHT22;42438;53.174;6.730;2023-05-20T04:25:47;11.00;29.30
56542;DHT22;42438;53.174;6.730;2023-05-20T04:28:18;11.00;99.90
56542;DHT22;42438;53.174;6.730;2023-05-20T04:30:49;11.00;99.90
56542;DHT22;42438;53.174;6.730;2023-05-20T04:33:28;11.00;99.90
56542;DHT22;42438;53.174;6.730;2023-05-20T04:35:58;10.70;91.60
56542;DHT22;42438;53.174;6.730;2023-05-20T04:38:30;11.00;1.00
56542;DHT22;42438;53.174;6.730;2023-05-20T04:41:01;11.00;99.90
56542;DHT22;42438;53.174;6.730;2023-05-20T04:43:33;11.00;99.90
56542;DHT22;42438;53.174;6.730;2023-05-20T04:46:03;11.00;99.90
56542;DHT22;42438;53.174;6.730;2023-05-20T04:48:35;11.10;55.40
56542;DHT22;42438;53.174;6.730;2023-05-20T04:51:05;11.10;1.00
56542;DHT22;42438;53.174;6.730;2023-05-20T04:53:36;11.10;1.00
56542;DHT22;42438;53.174;6.730;2023-05-20T04:56:07;11.20;1.00
56542;DHT22;42438;53.174;6.730;2023-05-20T04:58:38;11.20;1.00
56542;DHT22;42438;53.174;6.730;2023-05-20T05:01:09;11.30;99.90
56542;DHT22;42438;53.174;6.730;2023-05-20T05:03:39;11.30;99.90
56542;DHT22;42438;53.174;6.730;2023-05-20T05:06:10;11.40;99.90
56542;DHT22;42438;53.174;6.730;2023-05-20T05:08:40;11.50;99.90
56542;DHT22;42438;53.174;6.730;2023-05-20T05:11:11;11.50;99.90
56542;DHT22;42438;53.174;6.730;2023-05-20T05:13:42;11.60;99.90
56542;DHT22;42438;53.174;6.730;2023-05-20T05:16:12;11.60;99.90
56542;DHT22;42438;53.174;6.730;2023-05-20T05:18:43;11.70;99.90
56542;DHT22;42438;53.174;6.730;2023-05-20T05:21:14;11.90;99.90
56542;DHT22;42438;53.174;6.730;2023-05-20T05:23:44;11.90;94.90
56542;DHT22;42438;53.174;6.730;2023-05-20T05:26:15;12.10;56.90
56542;DHT22;42438;53.174;6.730;2023-05-20T05:28:46;12.20;27.40
56542;DHT22;42438;53.174;6.730;2023-05-20T05:31:16;12.50;4.30
56542;DHT22;42438;53.174;6.730;2023-05-20T05:33:47;12.60;1.00
56542;DHT22;42438;53.174;6.730;2023-05-20T05:36:18;12.70;1.00
56542;DHT22;42438;53.174;6.730;2023-05-20T05:38:48;12.80;1.00
56542;DHT22;42438;53.174;6.730;2023-05-20T05:41:19;12.90;1.00
56542;DHT22;42438;53.174;6.730;2023-05-20T05:43:51;13.10;1.00
56542;DHT22;42438;53.174;6.730;2023-05-20T05:46:21;14.10;1.00
56542;DHT22;42438;53.174;6.730;2023-05-20T05:48:52;15.50;1.00
56542;DHT22;42438;53.174;6.730;2023-05-20T05:51:23;16.50;1.00
56542;DHT22;42438;53.174;6.730;2023-05-20T05:53:54;17.30;1.00
56542;DHT22;42438;53.174;6.730;2023-05-20T05:56:25;17.90;1.00
56542;DHT22;42438;53.174;6.730;2023-05-20T05:58:56;18.40;1.00
56542;DHT22;42438;53.174;6.730;2023-05-20T06:01:27;18.60;1.00
56542;DHT22;42438;53.174;6.730;2023-05-20T06:03:57;18.60;1.00
56542;DHT22;42438;53.174;6.730;2023-05-20T06:06:28;18.80;1.00
56542;DHT22;42438;53.174;6.730;2023-05-20T06:08:59;19.00;1.00
56542;DHT22;42438;53.174;6.730;2023-05-20T06:11:29;18.70;1.00
56542;DHT22;42438;53.174;6.730;2023-05-20T06:14:00;18.50;1.00
56542;DHT22;42438;53.174;6.730;2023-05-20T06:16:31;18.20;1.00
56542;DHT22;42438;53.174;6.730;2023-05-20T06:19:02;18.10;1.00
56542;DHT22;42438;53.174;6.730;2023-05-20T06:21:34;17.70;1.00
56542;DHT22;42438;53.174;6.730;2023-05-20T06:24:05;17.40;1.00
56542;DHT22;42438;53.174;6.730;2023-05-20T06:26:36;16.90;1.00
56542;DHT22;42438;53.174;6.730;2023-05-20T06:29:07;16.30;1.00
56542;DHT22;42438;53.174;6.730;2023-05-20T06:31:38;15.90;1.00
56542;DHT22;42438;53.174;6.730;2023-05-20T06:34:09;15.30;1.00
56542;DHT22;42438;53.174;6.730;2023-05-20T06:36:39;15.00;1.00
56542;DHT22;42438;53.174;6.730;2023-05-20T06:39:10;14.70;1.00
56542;DHT22;42438;53.174;6.730;2023-05-20T06:41:41;14.60;1.00
56542;DHT22;42438;53.174;6.730;2023-05-20T06:44:13;14.50;1.00
56542;DHT22;42438;53.174;6.730;2023-05-20T06:46:44;14.50;1.00
56542;DHT22;42438;53.174;6.730;2023-05-20T06:49:14;14.50;1.00
56542;DHT22;42438;53.174;6.730;2023-05-20T06:51:45;14.40;1.00
56542;DHT22;42438;53.174;6.730;2023-05-20T06:54:15;14.50;1.00
56542;DHT22;42438;53.174;6.730;2023-05-20T06:56:46;14.40;1.00
56542;DHT22;42438;53.174;6.730;2023-05-20T06:59:17;14.50;1.00
56542;DHT22;42438;53.174;6.730;2023-05-20T07:01:47;14.50;1.00
56542;DHT22;42438;53.174;6.730;2023-05-20T07:04:18;14.50;1.00
56542;DHT22;42438;53.174;6.730;2023-05-20T07:06:48;14.50;1.00
56542;DHT22;42438;53.174;6.730;2023-05-20T07:09:19;14.50;1.00
56542;DHT22;42438;53.174;6.730;2023-05-20T07:11:50;14.50;1.00
56542;DHT22;42438;53.174;6.730;2023-05-20T07:14:20;14.50;1.00
56542;DHT22;42438;53.174;6.730;2023-05-20T07:16:51;14.60;1.00
56542;DHT22;42438;53.174;6.730;2023-05-20T07:19:22;14.70;1.00
56542;DHT22;42438;53.174;6.730;2023-05-20T07:21:52;14.70;1.00
56542;DHT22;42438;53.174;6.730;2023-05-20T07:24:23;14.80;1.00
56542;DHT22;42438;53.174;6.730;2023-05-20T07:26:54;14.80;1.00
56542;DHT22;42438;53.174;6.730;2023-05-20T07:29:25;14.90;1.00
56542;DHT22;42438;53.174;6.730;2023-05-20T07:31:55;15.00;1.00
56542;DHT22;42438;53.174;6.730;2023-05-20T07:34:26;15.10;1.00
56542;DHT22;42438;53.174;6.730;2023-05-20T07:36:57;15.20;1.00
56542;DHT22;42438;53.174;6.730;2023-05-20T07:39:27;15.20;1.00
56542;DHT22;42438;53.174;6.730;2023-05-20T07:41:58;15.30;1.00
56542;DHT22;42438;53.174;6.730;2023-05-20T07:44:29;15.30;1.00
56542;DHT22;42438;53.174;6.730;2023-05-20T07:46:59;15.40;1.00
56542;DHT22;42438;53.174;6.730;2023-05-20T07:49:31;15.50;1.00
56542;DHT22;42438;53.174;6.730;2023-05-20T07:52:02;15.50;1.00
56542;DHT22;42438;53.174;6.730;2023-05-20T07:54:34;15.60;1.00
56542;DHT22;42438;53.174;6.730;2023-05-20T07:57:05;15.70;1.00
56542;DHT22;42438;53.174;6.730;2023-05-20T07:59:35;15.80;1.00
56542;DHT22;42438;53.174;6.730;2023-05-20T08:02:06;15.90;1.00
56542;DHT22;42438;53.174;6.730;2023-05-20T08:04:37;15.90;1.00
56542;DHT22;42438;53.174;6.730;2023-05-20T08:07:08;16.00;1.00
56542;DHT22;42438;53.174;6.730;2023-05-20T08:09:38;16.10;1.00
56542;DHT22;42438;53.174;6.730;2023-05-20T08:12:09;16.10;1.00
56542;DHT22;42438;53.174;6.730;2023-05-20T08:14:39;16.20;1.00
56542;DHT22;42438;53.174;6.730;2023-05-20T08:17:10;16.30;1.00
56542;DHT22;42438;53.174;6.730;2023-05-20T08:19:41;16.50;1.00
56542;DHT22;42438;53.174;6.730;2023-05-20T08:22:12;16.60;1.00
56542;DHT22;42438;53.174;6.730;2023-05-20T08:24:42;16.80;1.00
56542;DHT22;42438;53.174;6.730;2023-05-20T08:27:13;17.00;1.00
56542;DHT22;42438;53.174;6.730;2023-05-20T08:29:44;17.10;1.00
56542;DHT22;42438;53.174;6.730;2023-05-20T08:32:14;17.20;1.00
56542;DHT22;42438;53.174;6.730;2023-05-20T08:34:45;17.20;1.00
56542;DHT22;42438;53.174;6.730;2023-05-20T08:37:18;17.30;1.00
56542;DHT22;42438;53.174;6.730;2023-05-20T08:39:49;17.50;1.00
56542;DHT22;42438;53.174;6.730;2023-05-20T08:42:23;17.40;1.00
56542;DHT22;42438;53.174;6.730;2023-05-20T08:44:55;17.50;1.00
56542;DHT22;42438;53.174;6.730;2023-05-20T08:47:26;17.60;1.00
56542;DHT22;42438;53.174;6.730;2023-05-20T08:49:57;17.80;1.00
56542;DHT22;42438;53.174;6.730;2023-05-20T08:52:28;17.80;1.00
56542;DHT22;42438;53.174;6.730;2023-05-20T08:55:01;17.80;1.00
56542;DHT22;42438;53.174;6.730;2023-05-20T08:57:32;17.90;1.00
56542;DHT22;42438;53.174;6.730;2023-05-20T09:00:03;17.80;1.00
56542;DHT22;42438;53.174;6.730;2023-05-20T09:02:44;17.80;1.00
56542;DHT22;42438;53.174;6.730;2023-05-20T09:05:16;18.00;1.00
56542;DHT22;42438;53.174;6.730;2023-05-20T09:07:47;18.10;1.00
56542;DHT22;42438;53.174;6.730;2023-05-20T09:10:19;18.30;1.00
56542;DHT22;42438;53.174;6.730;2023-05-20T09:12:50;18.40;1.00
56542;DHT22;42438;53.174;6.730;2023-05-20T09:15:20;18.50;1.00
56542;DHT22;42438;53.174;6.730;2023-05-20T09:17:51;18.60;1.00
56542;DHT22;42438;53.174;6.730;2023-05-20T09:20:22;18.70;1.00
56542;DHT22;42438;53.174;6.730;2023-05-20T09:22:52;18.80;1.00
56542;DHT22;42438;53.174;6.730;2023-05-20T09:25:23;19.00;1.00
56542;DHT22;42438;53.174;6.730;2023-05-20T09:27:54;19.10;1.00
56542;DHT22;42438;53.174;6.730;2023-05-20T09:30:25;19.20;1.00
56542;DHT22;42438;53.174;6.730;2023-05-20T09:32:57;19.10;1.00
56542;DHT22;42438;53.174;6.730;2023-05-20T09:35:28;19.00;1.00
56542;DHT22;42438;53.174;6.730;2023-05-20T09:37:58;19.00;1.00
56542;DHT22;42438;53.174;6.730;2023-05-20T09:40:29;19.20;1.00
56542;DHT22;42438;53.174;6.730;2023-05-20T09:43:04;19.20;1.00
56542;DHT22;42438;53.174;6.730;2023-05-20T09:45:36;19.40;1.00
56542;DHT22;42438;53.174;6.730;2023-05-20T09:48:08;19.20;1.00
56542;DHT22;42438;53.174;6.730;2023-05-20T09:50:41;19.20;1.00
56542;DHT22;42438;53.174;6.730;2023-05-20T09:53:13;19.40;1.00
56542;DHT22;42438;53.174;6.730;2023-05-20T09:55:44;19.40;1.00
56542;DHT22;42438;53.174;6.730;2023-05-20T09:58:16;19.50;1.00
56542;DHT22;42438;53.174;6.730;2023-05-20T10:00:48;19.60;1.00
56542;DHT22;42438;53.174;6.730;2023-05-20T10:03:22;19.70;1.00
56542;DHT22;42438;53.174;6.730;2023-05-20T10:09:15;19.70;1.00
56542;DHT22;42438;53.174;6.730;2023-05-20T10:20:30;19.70;1.00
56542;DHT22;42438;53.174;6.730;2023-05-20T10:23:01;19.50;1.00
56542;DHT22;42438;53.174;6.730;2023-05-20T10:25:31;19.50;1.00
56542;DHT22;42438;53.174;6.730;2023-05-20T10:28:08;19.60;1.00
56542;DHT22;42438;53.174;6.730;2023-05-20T10:30:49;19.80;1.00
56542;DHT22;42438;53.174;6.730;2023-05-20T10:33:20;20.00;1.00
56542;DHT22;42438;53.174;6.730;2023-05-20T10:35:51;20.10;1.00
56542;DHT22;42438;53.174;6.730;2023-05-20T10:38:21;20.40;1.00
56542;DHT22;42438;53.174;6.730;2023-05-20T10:40:52;20.50;1.00
56542;DHT22;42438;53.174;6.730;2023-05-20T10:43:27;20.50;1.00
56542;DHT22;42438;53.174;6.730;2023-05-20T10:45:58;20.60;1.00
56542;DHT22;42438;53.174;6.730;2023-05-20T10:48:32;20.90;1.00
56542;DHT22;42438;53.174;6.730;2023-05-20T10:51:02;21.10;1.00
56542;DHT22;42438;53.174;6.730;2023-05-20T10:53:45;20.90;1.00
56542;DHT22;42438;53.174;6.730;2023-05-20T10:56:17;20.90;1.00
56542;DHT22;42438;53.174;6.730;2023-05-20T10:58:48;21.10;1.00
56542;DHT22;42438;53.174;6.730;2023-05-20T11:01:24;21.20;1.00
56542;DHT22;42438;53.174;6.730;2023-05-20T11:03:56;21.30;1.00
56542;DHT22;42438;53.174;6.730;2023-05-20T11:06:27;21.30;1.00
56542;DHT22;42438;53.174;6.730;2023-05-20T11:09:03;21.40;1.00
56542;DHT22;42438;53.174;6.730;2023-05-20T11:11:35;21.10;1.00
56542;DHT22;42438;53.174;6.730;2023-05-20T11:14:09;21.00;1.00
56542;DHT22;42438;53.174;6.730;2023-05-20T11:16:43;20.60;1.00
56542;DHT22;42438;53.174;6.730;2023-05-20T11:19:17;20.40;1.00
56542;DHT22;42438;53.174;6.730;2023-05-20T11:21:48;20.50;1.00
56542;DHT22;42438;53.174;6.730;2023-05-20T11:24:27;20.50;1.00
56542;DHT22;42438;53.174;6.730;2023-05-20T11:26:59;20.60;1.00
56542;DHT22;42438;53.174;6.730;2023-05-20T11:29:30;20.60;1.00
56542;DHT22;42438;53.174;6.730;2023-05-20T11:32:01;20.60;1.00
56542;DHT22;42438;53.174;6.730;2023-05-20T11:34:34;20.60;1.00
56542;DHT22;42438;53.174;6.730;2023-05-20T11:37:06;20.80;1.00
56542;DHT22;42438;53.174;6.730;2023-05-20T11:39:37;20.90;1.00
56542;DHT22;42438;53.174;6.730;2023-05-20T11:42:07;21.10;1.00
56542;DHT22;42438;53.174;6.730;2023-05-20T11:44:42;20.90;1.00
56542;DHT22;42438;53.174;6.730;2023-05-20T11:47:14;20.90;1.00
56542;DHT22;42438;53.174;6.730;2023-05-20T11:49:47;21.10;1.00
56542;DHT22;42438;53.174;6.730;2023-05-20T11:52:18;21.30;1.00
56542;DHT22;42438;53.174;6.730;2023-05-20T11:54:52;21.70;1.00
56542;DHT22;42438;53.174;6.730;2023-05-20T11:57:23;21.60;1.00
56542;DHT22;42438;53.174;6.730;2023-05-20T11:59:54;21.30;1.00
56542;DHT22;42438;53.174;6.730;2023-05-20T12:02:25;21.20;1.00
56542;DHT22;42438;53.174;6.730;2023-05-20T12:04:55;21.30;1.00
56542;DHT22;42438;53.174;6.730;2023-05-20T12:07:27;21.40;1.00
56542;DHT22;42438;53.174;6.730;2023-05-20T12:09:58;21.40;1.00
56542;DHT22;42438;53.174;6.730;2023-05-20T12:12:28;21.10;1.00
56542;DHT22;42438;53.174;6.730;2023-05-20T12:14:59;21.10;1.00
56542;DHT22;42438;53.174;6.730;2023-05-20T12:17:34;21.20;1.00
56542;DHT22;42438;53.174;6.730;2023-05-20T12:20:14;21.20;1.00
56542;DHT22;42438;53.174;6.730;2023-05-20T12:22:46;21.30;1.00
56542;DHT22;42438;53.174;6.730;2023-05-20T12:25:18;21.30;1.00
56542;DHT22;42438;53.174;6.730;2023-05-20T12:27:50;21.30;1.00
56542;DHT22;42438;53.174;6.730;2023-05-20T12:30:22;21.40;1.00
56542;DHT22;42438;53.174;6.730;2023-05-20T12:32:52;21.40;1.00
56542;DHT22;42438;53.174;6.730;2023-05-20T12:35:25;21.70;1.00
56542;DHT22;42438;53.174;6.730;2023-05-20T12:38:05;22.10;1.00
56542;DHT22;42438;53.174;6.730;2023-05-20T12:40:36;21.70;1.00
56542;DHT22;42438;53.174;6.730;2023-05-20T12:43:07;21.50;1.00
56542;DHT22;42438;53.174;6.730;2023-05-20T12:45:38;21.30;1.00
56542;DHT22;42438;53.174;6.730;2023-05-20T12:48:08;21.30;1.00
56542;DHT22;42438;53.174;6.730;2023-05-20T12:50:39;21.10;1.00
56542;DHT22;42438;53.174;6.730;2023-05-20T12:53:10;20.90;1.00
56542;DHT22;42438;53.174;6.730;2023-05-20T12:55:40;20.90;1.00
56542;DHT22;42438;53.174;6.730;2023-05-20T12:58:11;21.10;1.00
56542;DHT22;42438;53.174;6.730;2023-05-20T13:00:42;21.30;1.00
56542;DHT22;42438;53.174;6.730;2023-05-20T13:03:12;21.30;1.00
56542;DHT22;42438;53.174;6.730;2023-05-20T13:05:43;21.00;1.00
56542;DHT22;42438;53.174;6.730;2023-05-20T13:08:14;20.70;1.00
56542;DHT22;42438;53.174;6.730;2023-05-20T13:10:44;20.70;1.00
56542;DHT22;42438;53.174;6.730;2023-05-20T13:13:15;20.80;1.00
56542;DHT22;42438;53.174;6.730;2023-05-20T13:15:50;20.90;1.00
56542;DHT22;42438;53.174;6.730;2023-05-20T13:18:21;21.00;1.00
56542;DHT22;42438;53.174;6.730;2023-05-20T13:20:52;20.90;1.00
56542;DHT22;42438;53.174;6.730;2023-05-20T13:23:22;20.90;1.00
56542;DHT22;42438;53.174;6.730;2023-05-20T13:25:53;20.80;1.00
56542;DHT22;42438;53.174;6.730;2023-05-20T13:28:24;20.80;1.00
56542;DHT22;42438;53.174;6.730;2023-05-20T13:30:55;20.70;1.00
56542;DHT22;42438;53.174;6.730;2023-05-20T13:33:25;20.90;1.00
56542;DHT22;42438;53.174;6.730;2023-05-20T13:35:56;21.10;1.00
56542;DHT22;42438;53.174;6.730;2023-05-20T13:38:27;21.20;1.00
56542;DHT22;42438;53.174;6.730;2023-05-20T13:40:57;21.30;1.00
56542;DHT22;42438;53.174;6.730;2023-05-20T13:43:30;21.40;1.00
56542;DHT22;42438;53.174;6.730;2023-05-20T13:46:01;21.30;1.00
56542;DHT22;42438;53.174;6.730;2023-05-20T13:48:32;21.20;1.00
56542;DHT22;42438;53.174;6.730;2023-05-20T13:51:03;21.10;1.00
56542;DHT22;42438;53.174;6.730;2023-05-20T13:53:33;21.20;1.00
56542;DHT22;42438;53.174;6.730;2023-05-20T13:56:04;21.20;1.00
56542;DHT22;42438;53.174;6.730;2023-05-20T13:58:38;21.10;1.00
56542;DHT22;42438;53.174;6.730;2023-05-20T14:01:09;21.30;1.00
56542;DHT22;42438;53.174;6.730;2023-05-20T14:03:41;21.30;1.00
56542;DHT22;42438;53.174;6.730;2023-05-20T14:06:12;21.10;1.00
56542;DHT22;42438;53.174;6.730;2023-05-20T14:08:46;21.00;1.00
56542;DHT22;42438;53.174;6.730;2023-05-20T14:11:17;21.00;1.00
56542;DHT22;42438;53.174;6.730;2023-05-20T14:13:47;21.00;1.00
56542;DHT22;42438;53.174;6.730;2023-05-20T14:16:18;21.00;1.00
56542;DHT22;42438;53.174;6.730;2023-05-20T14:18:48;20.90;1.00
56542;DHT22;42438;53.174;6.730;2023-05-20T14:21:19;20.70;1.00
56542;DHT22;42438;53.174;6.730;2023-05-20T14:23:50;20.60;1.00
56542;DHT22;42438;53.174;6.730;2023-05-20T14:26:20;20.70;1.00
56542;DHT22;42438;53.174;6.730;2023-05-20T14:28:51;20.70;1.00
56542;DHT22;42438;53.174;6.730;2023-05-20T14:31:22;20.80;1.00
56542;DHT22;42438;53.174;6.730;2023-05-20T14:33:52;20.80;1.00
56542;DHT22;42438;53.174;6.730;2023-05-20T14:36:23;20.80;1.00
56542;DHT22;42438;53.174;6.730;2023-05-20T14:38:54;20.70;1.00
56542;DHT22;42438;53.174;6.730;2023-05-20T14:41:24;20.70;1.00
56542;DHT22;42438;53.174;6.730;2023-05-20T14:43:55;20.50;1.00
56542;DHT22;42438;53.174;6.730;2023-05-20T14:46:26;20.50;1.00
56542;DHT22;42438;53.174;6.730;2023-05-20T14:48:56;20.40;1.00
56542;DHT22;42438;53.174;6.730;2023-05-20T14:51:27;20.30;1.00
56542;DHT22;42438;53.174;6.730;2023-05-20T14:53:58;20.20;1.00
56542;DHT22;42438;53.174;6.730;2023-05-20T14:56:28;20.20;1.00
56542;DHT22;42438;53.174;6.730;2023-05-20T14:59:00;20.20;1.00
56542;DHT22;42438;53.174;6.730;2023-05-20T15:01:31;20.10;1.00
56542;DHT22;42438;53.174;6.730;2023-05-20T15:04:02;20.30;1.00
56542;DHT22;42438;53.174;6.730;2023-05-20T15:06:33;20.30;1.00
56542;DHT22;42438;53.174;6.730;2023-05-20T15:09:05;20.40;1.00
56542;DHT22;42438;53.174;6.730;2023-05-20T15:11:35;20.40;1.00
56542;DHT22;42438;53.174;6.730;2023-05-20T15:14:06;20.50;1.00
56542;DHT22;42438;53.174;6.730;2023-05-20T15:16:37;20.40;1.00
56542;DHT22;42438;53.174;6.730;2023-05-20T15:19:07;20.40;1.00
56542;DHT22;42438;53.174;6.730;2023-05-20T15:21:38;20.30;1.00
56542;DHT22;42438;53.174;6.730;2023-05-20T15:24:09;20.20;1.00
56542;DHT22;42438;53.174;6.730;2023-05-20T15:26:40;20.10;1.00
56542;DHT22;42438;53.174;6.730;2023-05-20T15:29:11;20.00;1.00
56542;DHT22;42438;53.174;6.730;2023-05-20T15:31:41;19.90;1.00
56542;DHT22;42438;53.174;6.730;2023-05-20T15:34:12;19.80;1.00
56542;DHT22;42438;53.174;6.730;2023-05-20T15:36:43;19.70;1.00
56542;DHT22;42438;53.174;6.730;2023-05-20T15:39:14;19.80;1.00
56542;DHT22;42438;53.174;6.730;2023-05-20T15:41:44;20.10;1.00
56542;DHT22;42438;53.174;6.730;2023-05-20T15:44:17;20.30;1.00
56542;DHT22;42438;53.174;6.730;2023-05-20T15:46:48;20.40;1.00
56542;DHT22;42438;53.174;6.730;2023-05-20T15:49:18;20.30;1.00
56542;DHT22;42438;53.174;6.730;2023-05-20T15:51:49;20.30;1.00
56542;DHT22;42438;53.174;6.730;2023-05-20T15:54:19;20.30;1.00
56542;DHT22;42438;53.174;6.730;2023-05-20T15:56:50;20.50;1.00
56542;DHT22;42438;53.174;6.730;2023-05-20T15:59:21;20.50;1.00
56542;DHT22;42438;53.174;6.730;2023-05-20T16:01:51;20.50;1.00
56542;DHT22;42438;53.174;6.730;2023-05-20T16:04:22;20.30;1.00
56542;DHT22;42438;53.174;6.730;2023-05-20T16:06:53;20.20;1.00
56542;DHT22;42438;53.174;6.730;2023-05-20T16:09:23;20.00;1.00
56542;DHT22;42438;53.174;6.730;2023-05-20T16:11:54;19.90;1.00
56542;DHT22;42438;53.174;6.730;2023-05-20T16:14:25;19.80;1.00
56542;DHT22;42438;53.174;6.730;2023-05-20T16:16:56;19.70;1.00
56542;DHT22;42438;53.174;6.730;2023-05-20T16:19:26;19.70;1.00
56542;DHT22;42438;53.174;6.730;2023-05-20T16:21:57;19.60;1.00